Time;durP1;ratioP1;P1;durP2;ratioP2;P2;SDS_P1;SDS_P2;PMS_P1;PMS_P2;Temp;Humidity;BMP_temperature;BMP_pressure;BME280_temperature;BME280_humidity;BME280_pressure;Samples;Min_cycle;Max_cycle;Signal;HPM_P1;HPM_P2
2022/03/17 08:34:36;;;;;;;98.87;55.30;;;5.80;88.70;;;;;;8500819;27;20777;-65
2022/03/17 08:38:37;;;;;;;93.57;53.33;;;5.90;99.90;;;;;;8474452;27;20195;-64
2022/03/17 08:42:37;;;;;;;91.40;54.10;;;6.20;25.50;;;;;;8479120;28;20265;-66
2022/03/17 08:50:57;;;;;;;87.77;52.57;;;6.50;59.50;;;;;;8471164;28;20241;-65
2022/03/17 08:54:58;;;;;;;92.60;56.43;;;6.70;21.40;;;;;;8475792;28;20605;-66
2022/03/17 08:59:00;;;;;;;88.47;52.47;;;6.70;99.90;;;;;;8465278;27;20224;-65
2022/03/17 09:03:02;;;;;;;82.80;51.87;;;6.90;99.90;;;;;;8426361;28;20207;-65
2022/03/17 09:07:04;;;;;;;81.07;50.93;;;7.00;99.90;;;;;;8444988;28;20207;-67
2022/03/17 09:11:05;;;;;;;81.00;51.40;;;7.20;99.90;;;;;;8426265;28;20227;-64
2022/03/17 09:15:06;;;;;;;78.20;51.03;;;7.20;99.90;;;;;;8444826;28;20239;-66
2022/03/17 09:19:07;;;;;;;88.27;52.80;;;7.40;1.00;;;;;;8443829;28;20210;-65
2022/03/17 09:23:08;;;;;;;91.57;57.90;;;7.50;99.90;;;;;;8463580;28;20200;-67
2022/03/17 09:27:09;;;;;;;87.87;53.43;;;7.70;99.90;;;;;;8467296;27;20227;-65
2022/03/17 09:31:10;;;;;;;85.40;53.93;;;8.00;37.60;;;;;;8444879;28;20212;-65
2022/03/17 09:35:12;;;;;;;87.20;55.10;;;8.20;1.00;;;;;;8464742;28;20240;-65
2022/03/17 09:43:32;;;;;;;80.70;51.20;;;8.40;99.90;;;;;;8455649;27;20265;-64
2022/03/17 09:47:36;;;;;;;74.03;50.83;;;8.50;99.90;;;;;;8412450;28;20291;-66
2022/03/17 09:51:39;;;;;;;82.30;52.53;;;8.60;99.90;;;;;;8421533;28;20208;-65
2022/03/17 09:55:43;;;;;;;80.70;52.07;;;8.70;99.90;;;;;;8432036;28;20215;-66
2022/03/17 09:59:46;;;;;;;85.30;53.53;;;8.80;99.90;;;;;;8436245;28;20203;-65
2022/03/17 10:03:48;;;;;;;76.13;49.93;;;9.00;99.90;;;;;;8432922;28;20231;-67
2022/03/17 10:07:50;;;;;;;72.97;50.03;;;9.10;99.90;;;;;;8438386;28;20273;-65
2022/03/17 10:12:09;;;;;;;73.97;50.33;;;9.20;99.90;;;;;;8441419;28;20232;-65
2022/03/17 10:16:19;;;;;;;79.03;52.47;;;9.20;1.00;;;;;;8403330;28;20221;-66
2022/03/17 10:20:25;;;;;;;75.50;50.23;;;9.20;99.90;;;;;;8403205;28;20259;-67
2022/03/17 10:24:26;;;;;;;76.93;50.23;;;9.30;99.90;;;;;;8423187;28;20195;-65
2022/03/17 10:28:27;;;;;;;76.40;50.60;;;9.40;99.90;;;;;;8422192;28;20265;-68
2022/03/17 10:32:27;;;;;;;71.80;50.23;;;9.40;99.90;;;;;;8410538;28;20228;-67
2022/03/17 10:36:30;;;;;;;74.17;49.93;;;9.70;99.90;;;;;;8445011;28;20211;-66
2022/03/17 10:40:31;;;;;;;72.13;48.20;;;9.80;29.60;;;;;;8428406;28;20279;-67
2022/03/17 10:44:33;;;;;;;75.37;48.93;;;9.80;86.30;;;;;;8432618;28;20200;-66
2022/03/17 10:48:51;;;;;;;75.40;50.50;;;9.90;97.00;;;;;;8436973;28;20204;-66
2022/03/17 10:52:56;;;;;;;88.13;57.40;;;10.10;1.00;;;;;;8438638;28;20224;-66
2022/03/17 10:56:59;;;;;;;88.97;57.77;;;10.30;1.00;;;;;;8430106;28;20295;-66
2022/03/17 11:01:00;;;;;;;78.33;52.93;;;10.50;1.00;;;;;;8413129;28;20214;-67
2022/03/17 11:05:06;;;;;;;66.87;46.43;;;10.50;1.00;;;;;;8415153;28;20231;-67
2022/03/17 11:09:11;;;;;;;70.20;47.43;;;10.60;1.00;;;;;;8409867;28;20204;-68
2022/03/17 11:13:12;;;;;;;68.87;46.07;;;10.60;1.00;;;;;;8436611;28;20221;-67
2022/03/17 11:17:39;;;;;;;59.97;43.27;;;10.70;99.90;;;;;;8436315;28;20225;-67
2022/03/17 11:21:45;;;;;;;64.17;44.83;;;10.80;99.90;;;;;;8419115;28;20232;-67
2022/03/17 11:25:53;;;;;;;69.40;45.10;;;10.80;99.90;;;;;;8402568;28;20210;-65
2022/03/17 11:29:57;;;;;;;68.47;45.33;;;10.90;99.90;;;;;;8400075;28;20208;-65
2022/03/17 11:34:03;;;;;;;65.63;45.37;;;10.90;99.90;;;;;;8401430;28;20231;-67
2022/03/17 11:38:22;;;;;;;66.40;46.73;;;11.10;99.90;;;;;;8400030;28;20213;-65
2022/03/17 11:42:52;;;;;;;65.47;44.30;;;11.10;20.90;;;;;;8404896;28;20283;-67
2022/03/17 11:46:56;;;;;;;58.20;41.60;;;11.10;1.00;;;;;;8419643;28;20234;-67
2022/03/17 11:51:04;;;;;;;58.93;41.53;;;11.20;40.60;;;;;;8409711;28;20284;-68
2022/03/17 11:55:30;;;;;;;61.57;41.07;;;11.50;1.00;;;;;;8407883;28;20296;-65
2022/03/17 11:59:50;;;;;;;57.77;40.53;;;11.40;1.00;;;;;;8410265;28;20214;-67
2022/03/17 12:04:03;;;;;;;61.53;39.80;;;11.30;1.00;;;;;;8398913;28;20204;-67
2022/03/17 12:08:04;;;;;;;58.87;39.87;;;11.30;1.00;;;;;;8365452;28;20279;-68
2022/03/17 12:12:19;;;;;;;58.33;42.03;;;11.40;99.90;;;;;;8388888;28;20291;-65
2022/03/17 12:16:40;;;;;;;61.63;40.53;;;11.60;99.90;;;;;;8421349;28;20209;-65
2022/03/17 12:20:51;;;;;;;55.87;39.73;;;11.80;99.90;;;;;;8423093;28;20210;-67
2022/03/17 12:24:58;;;;;;;57.53;40.80;;;11.80;99.90;;;;;;8414295;28;20245;-65
2022/03/17 12:28:59;;;;;;;58.27;41.57;;;11.90;99.90;;;;;;8414830;28;20207;-67
2022/03/17 12:33:06;;;;;;;52.03;38.20;;;11.90;99.90;;;;;;8427972;28;20230;-66
2022/03/17 12:37:08;;;;;;;62.57;40.40;;;11.80;99.90;;;;;;8431772;28;20211;-67
2022/03/17 12:41:13;;;;;;;60.57;40.27;;;11.80;99.90;;;;;;8419981;28;20233;-68
2022/03/17 12:45:17;;;;;;;61.00;41.80;;;12.00;99.90;;;;;;8409936;28;20235;-65
2022/03/17 12:49:19;;;;;;;55.63;40.87;;;12.00;99.90;;;;;;8438779;28;20249;-66
2022/03/17 12:53:20;;;;;;;59.03;40.77;;;11.90;99.90;;;;;;8421766;28;20214;-66
2022/03/17 12:57:23;;;;;;;55.33;40.30;;;11.90;99.90;;;;;;8428056;28;20264;-66
2022/03/17 13:01:24;;;;;;;57.67;41.43;;;11.90;99.90;;;;;;8415623;28;20218;-66
2022/03/17 13:09:47;;;;;;;64.60;43.70;;;11.70;99.90;;;;;;8432237;28;20215;-67
2022/03/17 13:18:15;;;;;;;65.83;45.10;;;11.60;99.90;;;;;;8425567;28;20263;-66
2022/03/17 13:22:24;;;;;;;65.87;45.40;;;11.60;99.90;;;;;;8443465;28;20219;-66
2022/03/17 13:26:28;;;;;;;60.47;43.70;;;11.60;99.90;;;;;;8419759;28;20215;-67
2022/03/17 13:30:34;;;;;;;67.57;48.27;;;11.60;99.90;;;;;;8413928;28;20455;-68
2022/03/17 13:34:36;;;;;;;67.23;48.07;;;11.70;99.90;;;;;;8411779;28;20288;-68
2022/03/17 13:38:37;;;;;;;64.27;46.90;;;11.70;99.90;;;;;;8419768;28;20207;-68
2022/03/17 13:43:05;;;;;;;66.27;47.00;;;11.70;99.90;;;;;;8422969;28;20685;-68
2022/03/17 13:47:14;;;;;;;69.87;47.57;;;11.70;99.90;;;;;;8413123;28;20241;-68
2022/03/17 13:51:24;;;;;;;66.80;46.10;;;11.70;99.90;;;;;;8418316;28;20212;-68
2022/03/17 13:55:40;;;;;;;65.00;45.93;;;11.80;99.90;;;;;;8434775;28;20216;-67
2022/03/17 13:59:41;;;;;;;63.07;45.03;;;11.70;99.90;;;;;;8408715;28;20212;-66
2022/03/17 14:03:47;;;;;;;62.50;45.20;;;11.60;99.90;;;;;;8425764;28;20227;-67
2022/03/17 14:07:48;;;;;;;60.10;43.20;;;11.60;99.90;;;;;;8440450;28;20237;-66
2022/03/17 14:11:49;;;;;;;62.37;43.33;;;11.50;99.90;;;;;;8420555;28;20215;-67
2022/03/17 14:15:51;;;;;;;54.97;39.10;;;11.40;99.90;;;;;;8423341;28;20212;-66
2022/03/17 14:19:52;;;;;;;58.23;41.53;;;11.50;99.90;;;;;;8421170;28;20217;-67
2022/03/17 14:24:12;;;;;;;55.97;37.63;;;11.50;99.90;;;;;;8437400;28;20576;-65
2022/03/17 14:28:13;;;;;;;53.27;34.20;;;11.50;99.90;;;;;;8418812;28;20210;-66
2022/03/17 14:32:14;;;;;;;45.23;32.57;;;11.50;27.40;;;;;;8429919;28;20215;-67
2022/03/17 14:36:17;;;;;;;44.77;32.20;;;11.30;3.80;;;;;;8419762;28;20323;-67
2022/03/17 14:40:18;;;;;;;44.43;31.37;;;11.30;13.10;;;;;;8434698;28;20290;-67
2022/03/17 14:44:19;;;;;;;43.07;29.77;;;11.30;1.00;;;;;;8411338;28;20223;-65
2022/03/17 14:48:20;;;;;;;39.50;29.97;;;11.20;1.00;;;;;;8421860;28;20218;-66
2022/03/17 14:52:21;;;;;;;46.63;30.67;;;11.00;1.00;;;;;;8412588;28;20206;-64
2022/03/17 14:56:24;;;;;;;49.60;34.23;;;11.00;1.00;;;;;;8409251;28;20262;-66
2022/03/17 15:00:27;;;;;;;44.87;31.67;;;10.90;1.00;;;;;;8420491;28;20375;-67
2022/03/17 15:04:28;;;;;;;42.27;29.97;;;10.90;1.00;;;;;;8445879;28;20285;-66
2022/03/17 15:08:29;;;;;;;53.97;32.20;;;10.90;1.00;;;;;;8438655;28;20210;-66
2022/03/17 15:12:30;;;;;;;48.53;32.13;;;10.80;1.00;;;;;;8422356;28;20210;-65
2022/03/17 15:16:31;;;;;;;47.77;32.20;;;10.70;1.00;;;;;;8435491;28;20207;-65
2022/03/17 15:20:32;;;;;;;46.93;32.57;;;10.70;1.00;;;;;;8416044;28;20213;-66
2022/03/17 15:24:33;;;;;;;50.60;34.83;;;10.60;1.00;;;;;;8421887;28;20232;-65
2022/03/17 15:32:53;;;;;;;61.83;40.20;;;10.50;31.20;;;;;;8418678;28;20235;-66
2022/03/17 15:36:54;;;;;;;60.97;39.33;;;10.30;99.90;;;;;;8434126;28;20199;-67
2022/03/17 15:40:56;;;;;;;56.00;36.07;;;10.20;99.90;;;;;;8432943;28;20208;-65
2022/03/17 15:44:57;;;;;;;59.20;38.47;;;10.10;99.90;;;;;;8416565;28;20208;-67
2022/03/17 15:48:58;;;;;;;59.73;41.03;;;9.90;99.90;;;;;;8391577;28;20211;-67
2022/03/17 15:52:59;;;;;;;58.60;39.03;;;9.80;99.90;;;;;;8385689;28;20252;-66
2022/03/17 15:57:00;;;;;;;63.13;41.07;;;9.70;99.90;;;;;;8416480;28;20203;-66
2022/03/17 16:01:01;;;;;;;57.63;39.60;;;9.60;99.90;;;;;;8413867;28;20216;-67
2022/03/17 16:05:02;;;;;;;61.53;40.90;;;9.50;1.00;;;;;;8398782;28;20220;-65
2022/03/17 16:09:03;;;;;;;59.77;41.13;;;9.40;1.00;;;;;;8398158;28;20196;-66
2022/03/17 16:17:23;;;;;;;71.20;45.83;;;9.10;1.00;;;;;;8429691;28;20285;-64
2022/03/17 16:21:27;;;;;;;80.63;49.43;;;9.10;1.00;;;;;;8401310;28;20311;-66
2022/03/17 16:25:28;;;;;;;170.07;98.90;;;9.00;1.00;;;;;;8417659;28;20273;-67
2022/03/17 16:29:30;;;;;;;114.10;64.23;;;8.90;3.70;;;;;;8415625;28;20204;-66
2022/03/17 16:33:31;;;;;;;108.57;59.90;;;8.80;63.00;;;;;;8432288;28;20200;-67
2022/03/17 16:37:32;;;;;;;78.83;47.43;;;8.70;99.90;;;;;;8442064;28;20211;-65
2022/03/17 16:41:34;;;;;;;108.33;57.07;;;8.60;99.90;;;;;;8417594;28;20224;-67
2022/03/17 16:45:37;;;;;;;85.60;49.33;;;8.50;99.90;;;;;;8401312;28;20203;-67
2022/03/17 16:49:38;;;;;;;63.43;41.50;;;8.40;99.90;;;;;;8436471;28;20258;-67
2022/03/17 16:53:41;;;;;;;64.20;42.43;;;8.40;99.90;;;;;;8410761;28;20212;-66
2022/03/17 16:57:41;;;;;;;62.80;39.83;;;8.30;99.90;;;;;;8440654;28;20408;-67
2022/03/17 17:01:43;;;;;;;62.50;40.83;;;8.20;99.90;;;;;;8444802;28;20215;-65
2022/03/17 17:05:47;;;;;;;61.43;37.80;;;8.10;99.90;;;;;;8421467;28;20204;-67
2022/03/17 17:09:48;;;;;;;55.30;37.23;;;8.00;99.90;;;;;;8426636;28;20211;-67
2022/03/17 17:13:49;;;;;;;58.53;39.00;;;8.00;99.90;;;;;;8405666;28;20264;-65
2022/03/17 17:17:50;;;;;;;54.40;37.03;;;7.90;99.90;;;;;;8422964;28;20208;-67
2022/03/17 17:21:55;;;;;;;54.20;35.50;;;7.80;1.00;;;;;;8442804;28;20243;-65
2022/03/17 17:34:36;;;;;;;55.10;35.97;;;7.60;1.00;;;;;;8431651;28;20374;-68
2022/03/17 17:38:37;;;;;;;50.63;33.17;;;7.50;1.00;;;;;;8403804;28;20204;-68
2022/03/17 17:42:40;;;;;;;51.57;33.53;;;7.50;1.00;;;;;;8427816;28;20285;-69
2022/03/17 17:46:41;;;;;;;55.00;34.73;;;7.40;1.00;;;;;;8418692;28;20243;-68
2022/03/17 17:50:47;;;;;;;47.97;31.73;;;7.30;1.00;;;;;;8420744;28;20228;-68
2022/03/17 17:54:47;;;;;;;49.77;32.03;;;7.30;1.00;;;;;;8448501;28;20230;-68
2022/03/17 17:58:48;;;;;;;49.83;31.30;;;7.20;1.00;;;;;;8418789;28;20295;-68
2022/03/17 18:02:49;;;;;;;46.77;30.63;;;7.20;1.00;;;;;;8421644;28;20277;-68
2022/03/17 18:06:50;;;;;;;51.37;32.33;;;7.20;1.00;;;;;;8405487;28;20232;-68
2022/03/17 18:10:51;;;;;;;51.90;31.63;;;7.20;1.00;;;;;;8371311;28;20250;-67
2022/03/17 18:14:53;;;;;;;48.37;30.93;;;7.10;1.00;;;;;;8409035;28;20539;-68
2022/03/17 18:18:54;;;;;;;49.33;30.37;;;7.10;1.00;;;;;;8391956;28;20259;-68
2022/03/17 18:22:55;;;;;;;51.97;31.70;;;7.10;1.00;;;;;;8450268;28;20211;-67
2022/03/17 18:26:58;;;;;;;47.77;30.77;;;7.10;1.00;;;;;;8422660;28;20215;-68
2022/03/17 18:30:59;;;;;;;45.63;29.63;;;7.00;10.60;;;;;;8440922;28;20222;-67
2022/03/17 18:35:01;;;;;;;48.50;32.60;;;7.00;57.60;;;;;;8445412;28;20221;-67
2022/03/17 18:39:01;;;;;;;46.57;30.60;;;7.00;1.00;;;;;;8443747;28;20204;-66
2022/03/17 18:43:04;;;;;;;48.83;29.30;;;7.00;25.80;;;;;;8425202;28;20246;-67
2022/03/17 18:47:04;;;;;;;45.50;30.73;;;7.00;52.10;;;;;;8410699;28;20201;-65
2022/03/17 18:51:06;;;;;;;54.43;31.87;;;7.00;34.80;;;;;;8398094;28;20235;-66
2022/03/17 18:55:08;;;;;;;52.73;32.20;;;7.00;85.20;;;;;;8427226;28;20214;-66
2022/03/17 18:59:09;;;;;;;51.13;31.53;;;6.90;99.90;;;;;;8430219;28;20242;-67
2022/03/17 19:03:10;;;;;;;51.47;31.40;;;6.90;99.90;;;;;;8401328;28;20224;-67
2022/03/17 19:07:11;;;;;;;45.50;27.93;;;6.90;99.90;;;;;;8402100;28;20196;-67
2022/03/17 19:11:12;;;;;;;42.47;27.13;;;6.80;99.90;;;;;;8401207;28;20204;-67
2022/03/17 19:15:13;;;;;;;46.20;28.23;;;6.80;99.90;;;;;;8414472;28;20199;-66
2022/03/17 19:19:14;;;;;;;44.70;28.33;;;6.80;99.90;;;;;;8413558;28;20203;-67
2022/03/17 19:23:16;;;;;;;43.20;27.77;;;6.80;99.90;;;;;;8437827;28;20227;-67
2022/03/17 19:27:17;;;;;;;43.80;27.53;;;6.80;99.90;;;;;;8402858;28;20232;-66
2022/03/17 19:31:18;;;;;;;40.57;25.43;;;6.80;71.60;;;;;;8408462;28;20208;-64
2022/03/17 19:35:19;;;;;;;40.53;24.13;;;6.80;1.00;;;;;;8418345;28;20284;-66
2022/03/17 19:39:20;;;;;;;40.07;22.90;;;6.80;1.00;;;;;;8424916;28;20210;-66
2022/03/17 19:43:22;;;;;;;33.00;22.67;;;6.70;99.90;;;;;;8436185;28;20272;-65
2022/03/17 19:47:22;;;;;;;40.03;22.77;;;6.70;99.90;;;;;;8409598;28;20196;-66
2022/03/17 19:51:24;;;;;;;37.83;21.57;;;6.70;99.90;;;;;;8409733;28;20388;-67
2022/03/17 19:55:27;;;;;;;33.33;21.37;;;6.70;99.90;;;;;;8439796;28;20208;-66
2022/03/17 19:59:28;;;;;;;36.53;20.03;;;6.60;99.90;;;;;;8414171;28;20208;-66
2022/03/17 20:03:29;;;;;;;32.90;19.57;;;6.60;99.90;;;;;;8435252;28;20329;-66
2022/03/17 20:07:30;;;;;;;33.33;18.33;;;6.60;99.90;;;;;;8423639;28;20199;-66
2022/03/17 20:15:51;;;;;;;31.10;18.90;;;6.50;99.90;;;;;;8420655;28;20283;-67
2022/03/17 20:19:51;;;;;;;28.33;17.67;;;6.50;92.20;;;;;;8402349;28;20235;-67
2022/03/17 20:23:53;;;;;;;30.03;17.97;;;6.50;90.30;;;;;;8416104;28;20228;-67
2022/03/17 20:27:54;;;;;;;29.77;19.33;;;6.40;94.70;;;;;;8432615;28;20245;-67
2022/03/17 20:31:55;;;;;;;30.90;17.67;;;6.30;99.90;;;;;;8434340;28;20207;-67
2022/03/17 20:35:56;;;;;;;34.83;18.43;;;6.30;99.90;;;;;;8434990;28;20269;-67
2022/03/17 20:39:57;;;;;;;31.23;18.83;;;6.30;99.90;;;;;;8434899;28;20200;-67
2022/03/17 20:43:59;;;;;;;29.23;18.87;;;6.30;99.90;;;;;;8438057;28;20227;-67
2022/03/17 20:48:00;;;;;;;32.07;19.67;;;6.20;99.90;;;;;;8433276;28;20550;-67
2022/03/17 20:52:03;;;;;;;48.63;25.73;;;6.20;99.90;;;;;;8437253;28;20235;-67
2022/03/17 20:56:05;;;;;;;55.23;25.97;;;6.10;99.90;;;;;;8434543;28;20203;-67
2022/03/17 21:00:06;;;;;;;40.73;21.67;;;6.10;99.90;;;;;;8418457;28;20235;-66
2022/03/17 21:04:07;;;;;;;47.57;24.83;;;6.10;99.90;;;;;;8398279;28;20228;-67
2022/03/17 21:08:08;;;;;;;39.23;20.60;;;6.10;99.90;;;;;;8416747;28;20227;-68
2022/03/17 21:12:10;;;;;;;44.57;23.80;;;6.00;99.90;;;;;;8401299;28;20204;-68
2022/03/17 21:16:10;;;;;;;37.73;20.60;;;6.00;99.90;;;;;;8417847;28;20208;-67
2022/03/17 21:20:13;;;;;;;31.10;18.93;;;6.00;99.90;;;;;;8414345;28;20215;-67
2022/03/17 21:24:16;;;;;;;37.83;21.23;;;5.90;1.00;;;;;;8418616;28;20251;-67
2022/03/17 21:28:18;;;;;;;29.90;19.33;;;5.90;1.00;;;;;;8442145;28;20223;-67
2022/03/17 21:32:19;;;;;;;29.87;19.80;;;5.90;1.00;;;;;;8440971;28;20196;-68
2022/03/17 21:36:20;;;;;;;28.57;19.20;;;5.80;1.00;;;;;;8433100;28;20315;-67
2022/03/17 21:40:21;;;;;;;33.40;19.40;;;5.80;1.00;;;;;;8447201;28;20196;-67
2022/03/17 21:44:22;;;;;;;30.17;19.03;;;5.80;1.00;;;;;;8405911;28;20215;-68
2022/03/17 21:48:23;;;;;;;36.37;19.50;;;5.80;1.00;;;;;;8434228;28;20227;-67
2022/03/17 21:52:24;;;;;;;35.40;18.60;;;5.70;1.00;;;;;;8421722;28;20209;-68
2022/03/17 21:56:25;;;;;;;31.03;18.87;;;5.70;1.00;;;;;;8444722;28;20200;-66
2022/03/17 22:00:26;;;;;;;29.60;18.23;;;5.70;1.00;;;;;;8418798;28;20207;-67
2022/03/17 22:04:27;;;;;;;31.63;18.83;;;5.70;1.00;;;;;;8435965;28;20231;-67
2022/03/17 22:08:29;;;;;;;27.30;17.40;;;5.70;1.00;;;;;;8402717;28;20242;-67
2022/03/17 22:12:30;;;;;;;33.27;18.93;;;5.60;1.00;;;;;;8396090;28;20208;-67
2022/03/17 22:16:32;;;;;;;31.63;18.47;;;5.60;1.00;;;;;;8423249;28;20607;-66
2022/03/17 22:20:33;;;;;;;29.80;18.03;;;5.50;41.20;;;;;;8435556;28;20276;-68
2022/03/17 22:24:34;;;;;;;29.70;18.57;;;5.40;79.20;;;;;;8414997;28;20257;-67
2022/03/17 22:28:34;;;;;;;25.67;17.47;;;5.40;66.50;;;;;;8412720;28;20483;-67
2022/03/17 22:32:35;;;;;;;33.53;19.70;;;5.40;99.90;;;;;;8442038;28;20199;-67
2022/03/17 22:36:37;;;;;;;30.27;18.97;;;5.40;99.90;;;;;;8417283;28;20203;-67
2022/03/17 22:44:57;;;;;;;33.57;19.40;;;5.30;99.90;;;;;;8415581;28;20354;-67
2022/03/17 22:49:02;;;;;;;34.70;20.80;;;5.30;99.90;;;;;;8396216;28;20208;-66
2022/03/17 22:53:04;;;;;;;30.77;18.47;;;5.30;99.90;;;;;;8420657;28;20231;-68
2022/03/17 22:57:05;;;;;;;31.33;19.40;;;5.20;99.90;;;;;;8415678;28;20268;-67
2022/03/17 23:01:05;;;;;;;29.57;18.43;;;5.20;99.90;;;;;;8419903;28;20204;-67
2022/03/17 23:05:07;;;;;;;32.70;19.67;;;5.10;99.90;;;;;;8418229;28;20262;-67
2022/03/17 23:09:07;;;;;;;27.67;18.50;;;5.10;99.90;;;;;;8401163;28;20189;-67
2022/03/17 23:13:10;;;;;;;28.77;17.40;;;5.00;99.90;;;;;;8406828;28;20195;-67
2022/03/17 23:17:13;;;;;;;34.13;19.13;;;5.00;99.90;;;;;;8402198;28;20307;-68
2022/03/17 23:21:14;;;;;;;32.07;19.60;;;4.90;1.00;;;;;;8427655;28;20188;-68
2022/03/17 23:25:15;;;;;;;30.23;18.60;;;4.90;1.00;;;;;;8442322;28;20208;-67
2022/03/17 23:29:16;;;;;;;31.27;18.63;;;4.80;1.00;;;;;;8403812;28;20196;-68
2022/03/17 23:33:17;;;;;;;29.10;17.87;;;4.70;1.00;;;;;;8440909;28;20249;-67
2022/03/17 23:37:18;;;;;;;30.70;18.57;;;4.70;50.10;;;;;;8418235;28;20250;-67
2022/03/17 23:41:19;;;;;;;37.13;20.10;;;4.60;99.90;;;;;;8429514;28;20206;-67
2022/03/17 23:45:21;;;;;;;34.80;19.43;;;4.60;99.90;;;;;;8423377;28;20203;-67
2022/03/17 23:49:22;;;;;;;34.87;19.53;;;4.50;99.90;;;;;;8420707;28;20494;-68
2022/03/17 23:53:23;;;;;;;33.93;19.20;;;4.50;99.90;;;;;;8421705;28;20358;-67
2022/03/17 23:57:24;;;;;;;31.17;19.17;;;4.50;99.90;;;;;;8405819;28;20196;-67
